Nederlandse vliegveldverwachtingen (TAF)

Luchtvaartmeteorologische informatie voor operationeel gebruik en vluchtvoorbereiding is beschikbaar op www.luchtvaartmeteo.nl.

ZCZC
FT262300 EHAM     AMSTERDAM/SCHIPHOL   NLD   -3 m.
TAF EHAM 262317Z 2700/2806 06007KT CAVOK
    BECMG 2705/2708 08013KT
    TEMPO 2720/2802 4000 SHRA RA SCT008 BKN015 SCT020CB
    BECMG 2801/2804 12009KT 6000 BKN012
    PROB40 2802/2806 4000 BR BKN006=

ZCZC
FT262300 EHBK     MAASTRICHT/MAASTRICHT-AACHEN   NLD   114 m.
TAF EHBK 262314Z 2700/2806 05007KT CAVOK
    TEMPO 2715/2723 4000 SHRA SCT030CB BKN040
    PROB30 TEMPO 2715/2723 2500 TSRA
    PROB30 TEMPO 2803/2806 2500 TSRA BKN020 SCT050CB=

ZCZC
FT262300 EHGG     GRONINGEN/EELDE   NLD   5 m.
TAF EHGG 262312Z 2700/2806 VRB02KT CAVOK
    PROB30 2700/2704 6000 MIFG
    BECMG 2712/2715 07010KT
    TEMPO 2722/2806 4000 SHRA RA BKN030 SCT050CB
    PROB30 TEMPO 2722/2806 2500 TSRA
    BECMG 2803/2806 10011KT=

ZCZC
FT262300 EHRD     ROTTERDAM/THE HAGUE AIRPORT   NLD   -5 m.
TAF EHRD 262317Z 2700/2806 06007KT CAVOK
    BECMG 2705/2708 08013KT
    TEMPO 2719/2801 4000 SHRA RA SCT008 BKN015 SCT020CB
    BECMG 2800/2803 12009KT 6000 BKN012
    PROB40 2802/2806 4000 BR BKN006=

ZCZC
FT262300 EHEH     EINDHOVEN/EINDHOVEN   NLD   22 m.
TAF EHEH 262326Z 2700/2806 05006KT CAVOK
    TEMPO 2718/2806 07012G22KT 4000 SHRA SCT040CB BKN050
    PROB30 2718/2806 07015G25KT 2500 TSRA SCT020 SCT030CB
    BKN050
    PROB30 2800/2806 SCT010 BKN020=

ZCZC
FC270000 EHWO     WOENSDRECHT/WOENSDRECHT   NLD   19 m.
TAF EHWO 270000Z NIL=

ZCZC
FC270000 EHVK     VOLKEL/VOLKEL   NLD   21 m.
TAF EHVK 270000Z NIL=

ZCZC
FC270000 EHLW     LEEUWARDEN/LEEUWARDEN   NLD   1 m.
TAF EHLW 270043Z 2701/2713 VRB03KT CAVOK
    BECMG 2706/2709 06009KT=

ZCZC
FC270000 EHGR     GILZE-RIJEN/GILZE-RIJEN   NLD   14 m.
TAF EHGR 270000Z NIL=

ZCZC
FC270100 EHKD     DE KOOY/DE KOOY   NLD   1 m.
TAF EHKD 270040Z 2701/2713 09012KT CAVOK=

27/06/2017 03.30 uur LT